FVKB

Kariba International Airport

Kariba, Zimbabwe
METAR FVKB 171600Z 36001KT 9999 FEW040 31/20 Q1020
Observed Flight Rules
Dec-17 @ 16:00 UTC (5 hours ago) Visual Flight Rules
Wind Visibility Clouds
360° at 1 knots 10,000+ meters
  • Few at 4,000' AGL
Temperatures Readings
Current 31°C / 88°F
Dewpoint 20°C / 68°F
Humidity 52%
Altimeter 30.12" Hg
Pressure 1020 hPa
Elevation 518
METAR FVKB 171600Z 36001KT 9999 FEW040 31/20 Q1020
Observed Flight Rules
Dec-17 @ 16:00 UTC
(5 hours ago)
VFR
Wind Visibility
360° at 1 knots 10,000+ meters
Clouds
  • Few at 4,000' AGL
Temperature Dewpoint
31°C / 88°F 20°C / 68°F
Humidity Altimeter Pressure
52% 30.12" Hg 1020 hPa